createdAt,value
2019-01-03T00:00:07.837Z,103870.97
2019-01-03T00:03:11.284Z,103864.23
2019-01-03T00:05:59.507Z,103867.13
2019-01-03T00:08:45.139Z,103868.38
2019-01-03T00:11:36.066Z,103868.38
2019-01-03T00:14:24.120Z,103868.69
2019-01-03T00:17:12.169Z,103871.61
2019-01-03T00:19:59.015Z,103874.62
2019-01-03T00:22:49.869Z,103872.88
2019-01-03T00:25:55.972Z,103872.88
2019-01-03T00:28:43.932Z,103874.95
2019-01-03T00:31:43.802Z,103874.95
2019-01-03T00:34:22.270Z,103871.55
2019-01-03T00:37:09.162Z,103874.13
2019-01-03T00:40:00.163Z,103872.82
2019-01-03T00:42:48.072Z,103875.82
2019-01-03T00:45:32.197Z,103879.55
2019-01-03T00:48:28.958Z,103879.55
2019-01-03T00:51:18.448Z,103880.01
2019-01-03T00:54:06.387Z,103883.82
2019-01-03T00:56:55.097Z,103879.99
2019-01-03T00:59:44.996Z,103883.40
2019-01-03T01:02:45.338Z,103885.88
2019-01-03T01:05:39.242Z,103885.88
2019-01-03T01:08:27.462Z,103893.91
2019-01-03T01:11:30.768Z,103894.41
2019-01-03T01:14:31.155Z,103894.41
2019-01-03T01:17:25.217Z,103900.80
2019-01-03T01:20:05.749Z,103900.80
2019-01-03T01:23:00.115Z,103899.94
2019-01-03T01:25:40.899Z,103897.80
2019-01-03T01:28:24.310Z,103895.27
2019-01-03T01:31:11.599Z,103907.77
2019-01-03T01:34:02.129Z,103907.77
2019-01-03T01:36:53.401Z,103918.35
2019-01-03T01:39:51.834Z,103922.50
2019-01-03T01:42:38.858Z,103929.36
2019-01-03T01:45:36.102Z,103929.36
2019-01-03T01:48:38.091Z,103931.84
2019-01-03T01:51:24.895Z,103931.84
2019-01-03T01:54:11.737Z,103920.50
2019-01-03T01:57:09.021Z,103920.11
2019-01-03T01:59:52.996Z,103916.72
2019-01-03T02:02:41.045Z,103925.17
2019-01-03T02:05:27.930Z,103921.70
2019-01-03T02:08:11.897Z,103921.70
2019-01-03T02:11:01.669Z,103925.52
2019-01-03T02:13:48.572Z,103925.52
2019-01-03T02:16:46.376Z,103918.29
2019-01-03T02:19:31.421Z,103919.09
2019-01-03T02:22:21.437Z,103919.00
2019-01-03T02:25:12.441Z,103919.00
2019-01-03T02:28:06.537Z,103925.43
2019-01-03T02:30:59.992Z,103925.80
2019-01-03T02:33:53.818Z,103925.80
2019-01-03T02:36:41.760Z,103916.53
2019-01-03T02:39:42.261Z,103924.13
2019-01-03T02:42:45.613Z,103925.80
2019-01-03T02:45:24.487Z,103917.73
2019-01-03T02:48:11.035Z,103916.53
2019-01-03T02:51:10.388Z,103916.53
2019-01-03T02:53:57.607Z,103911.02
2019-01-03T02:56:45.548Z,103909.36
2019-01-03T02:59:36.252Z,103903.09
2019-01-03T03:02:24.356Z,103900.89
2019-01-03T03:05:11.384Z,103911.81
2019-01-03T03:08:05.799Z,103911.81
2019-01-03T03:10:53.209Z,103920.27
2019-01-03T03:13:40.838Z,103905.09
2019-01-03T03:16:27.750Z,103911.89
2019-01-03T03:19:11.804Z,103909.75
2019-01-03T03:21:50.633Z,103901.75
2019-01-03T03:24:41.611Z,103895.44
2019-01-03T03:27:38.529Z,103901.73
2019-01-03T03:30:26.853Z,103902.55
2019-01-03T03:33:14.862Z,103902.55
2019-01-03T03:35:52.159Z,103900.47
2019-01-03T03:38:39.100Z,103900.47
2019-01-03T03:41:46.132Z,103905.94
2019-01-03T03:44:33.818Z,103898.68
2019-01-03T03:47:26.754Z,103890.28
2019-01-03T03:50:17.780Z,103883.11
2019-01-03T03:53:23.993Z,103883.11
2019-01-03T03:56:11.959Z,103879.70
2019-01-03T03:58:58.347Z,103878.80
2019-01-03T04:01:49.195Z,103874.11
2019-01-03T04:04:36.129Z,103873.73
2019-01-03T04:07:36.446Z,103873.73
2019-01-03T04:10:39.942Z,103880.45
2019-01-03T04:13:38.244Z,103881.74
2019-01-03T04:16:26.269Z,103875.82
2019-01-03T04:19:14.223Z,103882.53
2019-01-03T04:22:19.108Z,103878.79
2019-01-03T04:25:18.537Z,103878.79
2019-01-03T04:28:12.581Z,103877.55
2019-01-03T04:30:59.330Z,103876.75
2019-01-03T04:33:50.327Z,103876.75
2019-01-03T04:36:40.950Z,103875.09
2019-01-03T04:39:27.603Z,103875.09
2019-01-03T04:42:07.597Z,103866.17
2019-01-03T04:44:45.487Z,103861.50
2019-01-03T04:47:33.443Z,103868.30
2019-01-03T04:50:24.384Z,103870.81
2019-01-03T04:53:15.225Z,103864.48
2019-01-03T04:56:03.176Z,103870.81
2019-01-03T04:58:51.145Z,103870.02
2019-01-03T05:02:19.954Z,103868.23
2019-01-03T05:04:59.982Z,103868.23
2019-01-03T05:08:01.395Z,103872.55
2019-01-03T05:10:52.472Z,103871.67
2019-01-03T05:13:39.262Z,103871.67
2019-01-03T05:16:26.332Z,103872.58
2019-01-03T05:19:32.756Z,103879.66
2019-01-03T05:22:30.019Z,103879.66
2019-01-03T05:25:24.299Z,103871.67
2019-01-03T05:28:10.953Z,103872.49
2019-01-03T05:30:57.742Z,103870.03
2019-01-03T05:33:45.724Z,103872.95
2019-01-03T05:36:32.312Z,103872.95
2019-01-03T05:39:21.950Z,103877.55
2019-01-03T05:42:19.223Z,103876.27
2019-01-03T05:45:06.037Z,103876.27
2019-01-03T05:47:52.951Z,103877.15
2019-01-03T05:50:39.803Z,103880.56
2019-01-03T05:53:21.994Z,103880.56
2019-01-03T05:56:08.741Z,103883.05
2019-01-03T05:58:49.303Z,103883.05
2019-01-03T06:01:37.290Z,103874.61
2019-01-03T06:04:32.957Z,103880.45
2019-01-03T06:07:30.084Z,103882.12
2019-01-03T06:10:16.898Z,103881.70
2019-01-03T06:12:58.019Z,103880.78
2019-01-03T06:15:53.210Z,103880.78
2019-01-03T06:18:39.989Z,103886.24
2019-01-03T06:21:30.440Z,103886.24
2019-01-03T06:24:15.145Z,103885.42
2019-01-03T06:27:18.161Z,103883.93
2019-01-03T06:30:15.119Z,103880.05
2019-01-03T06:33:06.146Z,103883.72
2019-01-03T06:35:53.855Z,103884.45
2019-01-03T06:38:40.831Z,103881.41
2019-01-03T06:41:28.812Z,103881.41
2019-01-03T06:44:25.842Z,103877.52
2019-01-03T06:47:19.790Z,103882.52
2019-01-03T06:50:09.017Z,103884.35
2019-01-03T06:52:56.962Z,103884.35
2019-01-03T06:55:39.318Z,103889.98
2019-01-03T06:58:30.134Z,103886.52
2019-01-03T07:01:36.702Z,103890.74
2019-01-03T07:04:23.097Z,103890.74
2019-01-03T07:07:09.820Z,103888.50
2019-01-03T07:10:04.594Z,103888.50
2019-01-03T07:13:03.873Z,103893.55
2019-01-03T07:15:57.973Z,103894.20
2019-01-03T07:18:48.940Z,103891.59
2019-01-03T07:21:39.708Z,103893.98
2019-01-03T07:24:30.436Z,103893.98
2019-01-03T07:27:24.538Z,103894.66
2019-01-03T07:30:18.432Z,103894.66
2019-01-03T07:33:04.335Z,103902.06
2019-01-03T07:35:51.224Z,103896.19
2019-01-03T07:38:38.046Z,103900.69
2019-01-03T07:41:38.416Z,103900.69
2019-01-03T07:44:25.179Z,103902.77
2019-01-03T07:47:12.317Z,103909.22
2019-01-03T07:50:00.264Z,103917.70
2019-01-03T07:52:53.130Z,103916.12
2019-01-03T07:55:40.246Z,103930.55
2019-01-03T07:58:27.154Z,103925.56
2019-01-03T08:01:07.425Z,103930.66
2019-01-03T08:03:54.380Z,103930.66
2019-01-03T08:06:41.334Z,103940.08
2019-01-03T08:09:25.820Z,103932.25
2019-01-03T08:12:12.635Z,103937.79
2019-01-03T08:15:15.952Z,103931.87
2019-01-03T08:18:04.008Z,103936.25
2019-01-03T08:20:50.974Z,103936.25
2019-01-03T08:23:42.276Z,103937.70
2019-01-03T08:26:30.067Z,103947.08
2019-01-03T08:29:29.134Z,103947.23
2019-01-03T08:32:15.473Z,103945.19
2019-01-03T08:35:01.721Z,103945.19
2019-01-03T08:37:48.334Z,103949.20
2019-01-03T08:40:35.079Z,103954.80
2019-01-03T08:43:27.214Z,103954.80
2019-01-03T08:46:18.398Z,103956.05
2019-01-03T08:49:04.514Z,103958.73
2019-01-03T08:52:01.548Z,103966.47
2019-01-03T08:54:42.948Z,103966.47
2019-01-03T08:57:30.057Z,103968.00
2019-01-03T09:00:16.944Z,103963.83
2019-01-03T09:03:03.560Z,103967.31
2019-01-03T09:06:01.034Z,103967.31
2019-01-03T09:08:49.296Z,103971.60
2019-01-03T09:11:46.502Z,103977.22
2019-01-03T09:14:40.091Z,103979.40
2019-01-03T09:17:27.178Z,103982.46
2019-01-03T09:20:33.590Z,103980.06
2019-01-03T09:23:19.983Z,103978.97
2019-01-03T09:26:17.293Z,103978.97
2019-01-03T09:29:04.296Z,103969.91
2019-01-03T09:31:49.635Z,103969.91
2019-01-03T09:34:28.265Z,103969.75
2019-01-03T09:37:31.292Z,103981.69
2019-01-03T09:40:13.480Z,103977.97
2019-01-03T09:43:00.077Z,103977.97
2019-01-03T09:45:29.158Z,103984.72
2019-01-03T09:47:58.161Z,103984.72
2019-01-03T09:50:27.174Z,103983.15
2019-01-03T09:52:56.253Z,103978.94
2019-01-03T09:55:25.294Z,103983.12
2019-01-03T09:57:54.309Z,103981.70
2019-01-03T10:00:23.353Z,103973.42
2019-01-03T10:02:52.366Z,103973.42
2019-01-03T10:05:21.539Z,103973.76
2019-01-03T10:07:50.539Z,103982.10
2019-01-03T10:10:19.541Z,103980.08
2019-01-03T10:12:48.612Z,103980.08
2019-01-03T10:15:17.689Z,103967.00
2019-01-03T10:17:46.669Z,103967.00
2019-01-03T10:20:15.829Z,103959.89
2019-01-03T10:22:46.416Z,103959.89
2019-01-03T10:25:15.472Z,103957.59
2019-01-03T10:27:44.607Z,103953.80
2019-01-03T10:30:13.696Z,103953.80
2019-01-03T10:32:43.584Z,103963.34
2019-01-03T10:35:12.733Z,103953.76
2019-01-03T10:37:41.750Z,103950.75
2019-01-03T10:40:10.873Z,103945.12
2019-01-03T10:42:39.983Z,103945.12
2019-01-03T10:45:11.018Z,103945.11
2019-01-03T10:47:40.036Z,103945.11
2019-01-03T10:50:09.223Z,103940.44
2019-01-03T10:52:38.239Z,103939.69
2019-01-03T10:55:07.407Z,103942.94
2019-01-03T10:57:36.470Z,103950.20
2019-01-03T11:00:12.396Z,103947.71
2019-01-03T11:02:41.358Z,103943.34
2019-01-03T11:05:11.654Z,103943.34
2019-01-03T11:07:40.881Z,103936.07
2019-01-03T11:10:12.293Z,103929.89
2019-01-03T11:12:41.321Z,103929.89
2019-01-03T11:15:10.488Z,103916.05
2019-01-03T11:17:39.498Z,103916.05
2019-01-03T11:20:08.630Z,103921.00
2019-01-03T11:22:37.621Z,103909.30
2019-01-03T11:25:06.988Z,103910.75
2019-01-03T11:27:36.002Z,103910.80
2019-01-03T11:30:05.771Z,103913.16
2019-01-03T11:32:34.828Z,103906.52
2019-01-03T11:35:04.011Z,103905.71
2019-01-03T11:37:33.081Z,103906.12
2019-01-03T11:40:02.099Z,103905.63
2019-01-03T11:42:31.188Z,103905.63
2019-01-03T11:45:00.181Z,103904.72
2019-01-03T11:47:29.200Z,103906.53
2019-01-03T11:49:58.277Z,103907.22
2019-01-03T11:52:27.292Z,103901.22
2019-01-03T11:54:56.339Z,103902.41
2019-01-03T11:57:26.414Z,103902.41
2019-01-03T11:59:55.786Z,103897.02
2019-01-03T12:02:25.779Z,103900.41
2019-01-03T12:04:54.918Z,103900.41
2019-01-03T12:07:23.908Z,103900.01
2019-01-03T12:09:52.941Z,103891.70
2019-01-03T12:12:21.994Z,103891.70
2019-01-03T12:14:50.988Z,103896.73
2019-01-03T12:17:20.017Z,103895.70
2019-01-03T12:19:52.627Z,103895.78
2019-01-03T12:22:21.645Z,103892.44
2019-01-03T12:24:50.719Z,103894.23
2019-01-03T12:27:19.798Z,103894.23
2019-01-03T12:29:48.796Z,103896.07
2019-01-03T12:32:17.823Z,103896.07
2019-01-03T12:34:47.754Z,103897.67
2019-01-03T12:37:16.728Z,103897.67
2019-01-03T12:39:45.774Z,103894.06
2019-01-03T12:42:14.784Z,103900.37
2019-01-03T12:44:43.868Z,103905.54
2019-01-03T12:47:13.182Z,103905.54
2019-01-03T12:49:42.175Z,103909.02
2019-01-03T12:52:11.206Z,103904.80
2019-01-03T12:54:40.233Z,103904.80
2019-01-03T12:57:09.294Z,103897.19
2019-01-03T12:59:38.296Z,103896.32
2019-01-03T13:02:08.598Z,103896.61
2019-01-03T13:04:37.674Z,103891.48
2019-01-03T13:07:06.685Z,103897.33
2019-01-03T13:09:35.681Z,103900.38
2019-01-03T13:12:04.820Z,103898.28
2019-01-03T13:14:33.847Z,103898.28
2019-01-03T13:17:06.024Z,103892.75
2019-01-03T13:19:35.014Z,103888.63
2019-01-03T13:22:04.095Z,103888.74
2019-01-03T13:24:33.124Z,103882.39
2019-01-03T13:27:02.584Z,103884.00
2019-01-03T13:29:31.701Z,103884.00
2019-01-03T13:32:00.671Z,103889.56
2019-01-03T13:34:30.331Z,103889.56
2019-01-03T13:36:59.374Z,103892.47
2019-01-03T13:39:28.455Z,103894.15
2019-01-03T13:41:57.464Z,103895.91
2019-01-03T13:44:26.501Z,103900.17
2019-01-03T13:46:55.514Z,103906.81
2019-01-03T13:49:24.513Z,103906.03
2019-01-03T13:51:53.613Z,103906.03
2019-01-03T13:54:22.626Z,103905.81
2019-01-03T13:56:51.876Z,103902.18
2019-01-03T13:59:20.930Z,103898.37
2019-01-03T14:01:50.017Z,103897.83
2019-01-03T14:04:19.029Z,103897.83
2019-01-03T14:06:48.144Z,103899.91
2019-01-03T14:09:17.141Z,103899.91
2019-01-03T14:11:46.315Z,103907.44
2019-01-03T14:14:15.459Z,103910.74
2019-01-03T14:16:44.548Z,103910.74
2019-01-03T14:19:13.550Z,103902.72
2019-01-03T14:21:42.574Z,103905.66
2019-01-03T14:24:13.010Z,103901.66
2019-01-03T14:26:42.134Z,103901.66
2019-01-03T14:30:44.161Z,103905.86
2019-01-03T14:33:13.132Z,103908.85
2019-01-03T14:35:42.167Z,103902.92
2019-01-03T14:38:11.280Z,103902.92
2019-01-03T14:40:40.415Z,103903.63
2019-01-03T14:43:09.452Z,103909.16
2019-01-03T14:45:38.619Z,103909.16
2019-01-03T14:48:07.698Z,103901.08
2019-01-03T14:50:36.862Z,103901.08
2019-01-03T14:53:05.850Z,103905.17
2019-01-03T14:55:35.128Z,103912.27
2019-01-03T14:58:04.297Z,103912.27
2019-01-03T15:00:34.626Z,103916.77
2019-01-03T15:03:03.644Z,103916.77
2019-01-03T15:05:32.671Z,103929.85
2019-01-03T15:08:01.680Z,103927.23
2019-01-03T15:10:30.725Z,103927.23
2019-01-03T15:12:59.744Z,103924.63
2019-01-03T15:15:28.820Z,103923.84
2019-01-03T15:17:57.802Z,103924.08
2019-01-03T15:20:26.798Z,103923.59
2019-01-03T15:22:55.799Z,103923.09
2019-01-03T15:25:25.018Z,103925.14
2019-01-03T15:27:54.017Z,103925.14
2019-01-03T15:30:22.983Z,103931.80
2019-01-03T15:32:52.000Z,103933.84
2019-01-03T15:35:21.044Z,103939.20
2019-01-03T15:37:50.450Z,103939.11
2019-01-03T15:40:19.443Z,103941.55
2019-01-03T15:42:48.549Z,103946.08
2019-01-03T15:45:17.649Z,103946.08
2019-01-03T15:47:46.645Z,103940.00
2019-01-03T15:50:15.684Z,103943.61
2019-01-03T15:52:44.844Z,103949.02
2019-01-03T15:55:13.918Z,103945.69
2019-01-03T15:57:43.029Z,103955.23
2019-01-03T16:00:12.212Z,103955.79
2019-01-03T16:02:41.323Z,103955.79
2019-01-03T16:05:10.512Z,103955.84
2019-01-03T16:07:39.560Z,103960.78
2019-01-03T16:10:09.472Z,103960.78
2019-01-03T16:12:38.458Z,103960.67
2019-01-03T16:15:08.105Z,103966.95
2019-01-03T16:17:37.148Z,103975.28
2019-01-03T16:20:06.605Z,103971.34
2019-01-03T16:22:35.752Z,103972.66
2019-01-03T16:25:04.920Z,103972.66
2019-01-03T16:27:33.963Z,103978.41
2019-01-03T16:30:03.102Z,103978.41
2019-01-03T16:32:34.296Z,103977.66
2019-01-03T16:35:10.569Z,103975.09
2019-01-03T16:37:39.589Z,103975.09
2019-01-03T16:40:09.799Z,103960.70
2019-01-03T16:42:42.255Z,103960.10
2019-01-03T16:45:13.869Z,103963.41
2019-01-03T16:47:42.901Z,103962.48
2019-01-03T16:50:16.564Z,103965.47
2019-01-03T16:52:45.822Z,103968.47
2019-01-03T16:55:16.297Z,103960.81
2019-01-03T16:57:45.317Z,103960.81
2019-01-03T17:00:14.585Z,103959.59
2019-01-03T17:02:43.607Z,103969.81
2019-01-03T17:05:12.765Z,103967.69
2019-01-03T17:07:41.866Z,103967.69
2019-01-03T17:10:14.033Z,103969.86
2019-01-03T17:12:43.173Z,103965.84
2019-01-03T17:15:12.356Z,103976.46
2019-01-03T17:17:41.420Z,103978.48
2019-01-03T17:20:11.441Z,103982.61
2019-01-03T17:22:40.602Z,103982.61
2019-01-03T17:25:12.408Z,103987.73
2019-01-03T17:27:41.593Z,103991.00
2019-01-03T17:30:12.015Z,103980.94
2019-01-03T17:32:41.144Z,103986.73
2019-01-03T17:35:11.560Z,103986.73
2019-01-03T17:37:40.615Z,103996.78
2019-01-03T17:40:11.776Z,103996.78
2019-01-03T17:42:41.538Z,103985.09
2019-01-03T17:45:12.123Z,103973.61
2019-01-03T17:47:41.215Z,103974.01
2019-01-03T17:50:11.081Z,103961.75
2019-01-03T17:52:40.382Z,103965.41
2019-01-03T17:55:09.541Z,103945.58
2019-01-03T17:57:38.809Z,103954.31
2019-01-03T18:00:11.915Z,103954.31
2019-01-03T18:02:43.078Z,103955.60
2019-01-03T18:05:13.399Z,103947.53
2019-01-03T18:07:42.400Z,103944.20
2019-01-03T18:10:12.718Z,103918.88
2019-01-03T18:12:41.960Z,103918.88
2019-01-03T18:15:11.200Z,103902.52
2019-01-03T18:17:40.262Z,103902.52
2019-01-03T18:20:15.568Z,103906.64
2019-01-03T18:22:44.703Z,103906.64
2019-01-03T18:25:13.910Z,103931.48
2019-01-03T18:27:43.214Z,103931.48
2019-01-03T18:30:13.368Z,103936.08
2019-01-03T18:32:42.464Z,103961.73
2019-01-03T18:35:11.622Z,103961.73
2019-01-03T18:37:40.834Z,103957.14
2019-01-03T18:40:13.553Z,103931.78
2019-01-03T18:42:42.629Z,103931.78
2019-01-03T18:45:16.303Z,103933.83
2019-01-03T18:47:47.176Z,103937.58
2019-01-03T18:50:18.987Z,103937.58
2019-01-03T18:52:46.963Z,103938.41
2019-01-03T18:55:16.675Z,103931.20
2019-01-03T18:57:46.898Z,103927.25
2019-01-03T19:00:16.033Z,103927.25
2019-01-03T19:02:45.193Z,103930.19
2019-01-03T19:05:14.312Z,103941.66
2019-01-03T19:07:43.308Z,103941.66
2019-01-03T19:10:12.438Z,103960.20
2019-01-03T19:12:41.426Z,103960.20
2019-01-03T19:15:11.040Z,103963.50
2019-01-03T19:17:40.077Z,103957.05
2019-01-03T19:20:10.910Z,103955.19
2019-01-03T19:22:40.367Z,103955.19
2019-01-03T19:25:12.431Z,103958.83
2019-01-03T19:27:42.881Z,103961.98
2019-01-03T19:30:12.175Z,103961.98
2019-01-03T19:32:41.451Z,103970.90
2019-01-03T19:35:11.209Z,103977.06
2019-01-03T19:37:41.858Z,103984.11
2019-01-03T19:40:12.988Z,103984.11
2019-01-03T19:42:42.907Z,103994.70
2019-01-03T19:45:12.496Z,103998.39
2019-01-03T19:47:41.637Z,104000.27
2019-01-03T19:50:12.754Z,104000.27
2019-01-03T19:52:41.754Z,103996.75
2019-01-03T19:55:10.924Z,103995.34
2019-01-03T19:57:39.978Z,103998.31
2019-01-03T20:00:11.835Z,103996.90
2019-01-03T20:02:40.839Z,103999.27
2019-01-03T20:05:10.013Z,103999.27
2019-01-03T20:07:39.478Z,103998.11
2019-01-03T20:10:10.444Z,103999.43
2019-01-03T20:12:39.658Z,104004.41
2019-01-03T20:15:10.675Z,103998.41
2019-01-03T20:17:39.809Z,103996.18
2019-01-03T20:20:09.587Z,103993.73
2019-01-03T20:22:38.771Z,103987.02
2019-01-03T20:25:08.692Z,103985.13
2019-01-03T20:27:37.959Z,103983.44
2019-01-03T20:30:08.677Z,103985.13
2019-01-03T20:32:37.724Z,103985.03
2019-01-03T20:35:06.891Z,103985.03
2019-01-03T20:37:36.455Z,103981.61
2019-01-03T20:40:05.846Z,103978.73
2019-01-03T20:42:34.853Z,103972.30
2019-01-03T20:45:04.007Z,103970.50
2019-01-03T20:47:33.083Z,103970.50
2019-01-03T20:50:03.584Z,103966.52
2019-01-03T20:52:32.626Z,103966.52
2019-01-03T20:55:01.706Z,103970.56
2019-01-03T20:57:30.818Z,103972.39
2019-01-03T20:59:59.888Z,103970.53
2019-01-03T21:02:28.961Z,103973.80
2019-01-03T21:04:57.949Z,103971.44
2019-01-03T21:07:27.078Z,103971.44
2019-01-03T21:09:56.126Z,103977.48
2019-01-03T21:12:26.818Z,103977.48
2019-01-03T21:14:55.900Z,103978.57
2019-01-03T21:17:24.922Z,103975.95
2019-01-03T21:19:53.951Z,103975.95
2019-01-03T21:22:23.074Z,103978.00
2019-01-03T21:24:52.150Z,103974.08
2019-01-03T21:27:21.176Z,103974.08
2019-01-03T21:29:50.323Z,103983.58
2019-01-03T21:32:19.358Z,103976.92
2019-01-03T21:34:48.430Z,103968.64
2019-01-03T21:37:17.511Z,103968.61
2019-01-03T21:39:46.549Z,103974.91
2019-01-03T21:42:15.600Z,103972.61
2019-01-03T21:44:44.742Z,103973.94
2019-01-03T21:47:13.830Z,103970.98
2019-01-03T21:49:42.914Z,103972.39
2019-01-03T21:52:12.004Z,103963.27
2019-01-03T21:54:41.023Z,103968.84
2019-01-03T21:57:10.094Z,103962.57
2019-01-03T21:59:39.204Z,103965.69
2019-01-03T22:02:08.293Z,103971.53
2019-01-03T22:04:37.363Z,103974.48
2019-01-03T22:07:06.587Z,103968.31
2019-01-03T22:09:35.711Z,103971.77
2019-01-03T22:12:04.875Z,103976.84
2019-01-03T22:14:33.990Z,103975.94
2019-01-03T22:17:02.986Z,103975.94
2019-01-03T22:19:32.051Z,103975.31
2019-01-03T22:22:01.466Z,103972.88
2019-01-03T22:24:30.454Z,103968.27
2019-01-03T22:26:59.428Z,103976.33
2019-01-03T22:29:28.453Z,103966.86
2019-01-03T22:31:57.653Z,103966.86
2019-01-03T22:34:26.699Z,103964.93
2019-01-03T22:36:55.813Z,103973.83
2019-01-03T22:39:24.788Z,103973.83
2019-01-03T22:41:53.795Z,103968.50
2019-01-03T22:44:22.856Z,103968.50
2019-01-03T22:46:51.871Z,103965.12
2019-01-03T22:49:20.872Z,103960.97
2019-01-03T22:51:49.960Z,103960.97
2019-01-03T22:54:18.965Z,103957.92
2019-01-03T22:56:48.002Z,103954.66
2019-01-03T22:59:17.118Z,103948.46
2019-01-03T23:01:46.464Z,103948.46
2019-01-03T23:04:15.634Z,103938.22
2019-01-03T23:06:44.811Z,103938.22
2019-01-03T23:09:13.886Z,103946.09
2019-01-03T23:11:42.971Z,103946.61
2019-01-03T23:14:11.992Z,103952.63
2019-01-03T23:16:40.992Z,103952.63
2019-01-03T23:19:09.992Z,103948.55
2019-01-03T23:21:39.006Z,103945.30
2019-01-03T23:24:08.095Z,103934.03
2019-01-03T23:26:37.100Z,103942.11
2019-01-03T23:29:06.223Z,103934.56
2019-01-03T23:31:35.217Z,103944.73
2019-01-03T23:34:04.299Z,103944.73
2019-01-03T23:36:33.404Z,103943.11
2019-01-03T23:39:02.378Z,103941.55
2019-01-03T23:41:31.374Z,103943.24
2019-01-03T23:44:00.371Z,103951.66
2019-01-03T23:46:29.579Z,103951.66
2019-01-03T23:48:58.582Z,103945.83
2019-01-03T23:51:27.603Z,103954.70
2019-01-03T23:53:56.671Z,103947.92
2019-01-03T23:56:25.744Z,103948.27
2019-01-03T23:58:54.919Z,103934.45
